sensor_id;sensor_type;location;lat;lon;timestamp;temperature;humidity
20057;DHT22;10189;49.546;7.906;2023-05-10T00:01:32;11.30;99.90
20057;DHT22;10189;49.546;7.906;2023-05-10T00:03:58;11.30;99.90
20057;DHT22;10189;49.546;7.906;2023-05-10T00:06:24;11.30;99.90
20057;DHT22;10189;49.546;7.906;2023-05-10T00:08:50;11.20;99.90
20057;DHT22;10189;49.546;7.906;2023-05-10T00:11:15;11.20;99.90
20057;DHT22;10189;49.546;7.906;2023-05-10T00:13:41;11.20;99.90
20057;DHT22;10189;49.546;7.906;2023-05-10T00:16:07;11.20;99.90
20057;DHT22;10189;49.546;7.906;2023-05-10T00:18:33;11.20;99.90
20057;DHT22;10189;49.546;7.906;2023-05-10T00:20:59;11.20;99.90
20057;DHT22;10189;49.546;7.906;2023-05-10T00:23:25;11.20;99.90
20057;DHT22;10189;49.546;7.906;2023-05-10T00:25:51;11.20;99.90
20057;DHT22;10189;49.546;7.906;2023-05-10T00:28:16;11.30;99.90
20057;DHT22;10189;49.546;7.906;2023-05-10T00:30:42;11.30;99.90
20057;DHT22;10189;49.546;7.906;2023-05-10T00:33:08;11.30;99.90
20057;DHT22;10189;49.546;7.906;2023-05-10T00:35:34;11.30;99.90
20057;DHT22;10189;49.546;7.906;2023-05-10T00:38:00;11.30;99.90
20057;DHT22;10189;49.546;7.906;2023-05-10T00:40:26;11.30;99.90
20057;DHT22;10189;49.546;7.906;2023-05-10T00:42:56;11.30;99.90
20057;DHT22;10189;49.546;7.906;2023-05-10T00:45:23;11.20;99.90
20057;DHT22;10189;49.546;7.906;2023-05-10T00:47:51;11.20;99.90
20057;DHT22;10189;49.546;7.906;2023-05-10T00:50:24;11.20;99.90
20057;DHT22;10189;49.546;7.906;2023-05-10T00:52:50;11.10;99.90
20057;DHT22;10189;49.546;7.906;2023-05-10T00:55:16;11.10;99.90
20057;DHT22;10189;49.546;7.906;2023-05-10T00:57:43;11.10;99.90
20057;DHT22;10189;49.546;7.906;2023-05-10T01:00:09;11.10;99.90
20057;DHT22;10189;49.546;7.906;2023-05-10T01:02:36;11.10;99.90
20057;DHT22;10189;49.546;7.906;2023-05-10T01:05:03;11.10;99.90
20057;DHT22;10189;49.546;7.906;2023-05-10T01:07:29;11.10;99.90
20057;DHT22;10189;49.546;7.906;2023-05-10T01:09:56;11.10;99.90
20057;DHT22;10189;49.546;7.906;2023-05-10T01:12:22;11.10;99.90
20057;DHT22;10189;49.546;7.906;2023-05-10T01:14:48;11.20;99.90
20057;DHT22;10189;49.546;7.906;2023-05-10T01:17:14;11.20;99.90
20057;DHT22;10189;49.546;7.906;2023-05-10T01:19:41;11.20;99.90
20057;DHT22;10189;49.546;7.906;2023-05-10T01:39:21;11.20;99.90
20057;DHT22;10189;49.546;7.906;2023-05-10T01:42:03;11.20;99.90
20057;DHT22;10189;49.546;7.906;2023-05-10T01:44:46;11.30;99.90
20057;DHT22;10189;49.546;7.906;2023-05-10T01:47:31;11.30;99.90
20057;DHT22;10189;49.546;7.906;2023-05-10T01:50:02;11.30;99.90
20057;DHT22;10189;49.546;7.906;2023-05-10T01:52:33;11.30;99.90
20057;DHT22;10189;49.546;7.906;2023-05-10T01:55:05;11.30;99.90
20057;DHT22;10189;49.546;7.906;2023-05-10T01:57:36;11.20;99.90
20057;DHT22;10189;49.546;7.906;2023-05-10T02:00:07;11.30;99.90
20057;DHT22;10189;49.546;7.906;2023-05-10T02:02:44;11.20;99.90
20057;DHT22;10189;49.546;7.906;2023-05-10T02:05:15;11.30;99.90
20057;DHT22;10189;49.546;7.906;2023-05-10T02:07:43;11.20;99.90
20057;DHT22;10189;49.546;7.906;2023-05-10T02:10:11;11.30;99.90
20057;DHT22;10189;49.546;7.906;2023-05-10T02:12:42;11.20;99.90
20057;DHT22;10189;49.546;7.906;2023-05-10T02:15:11;11.20;99.90
20057;DHT22;10189;49.546;7.906;2023-05-10T02:17:42;11.20;99.90
20057;DHT22;10189;49.546;7.906;2023-05-10T02:20:09;11.00;99.90
20057;DHT22;10189;49.546;7.906;2023-05-10T02:22:37;10.90;99.90
20057;DHT22;10189;49.546;7.906;2023-05-10T02:25:05;10.90;99.90
20057;DHT22;10189;49.546;7.906;2023-05-10T02:27:32;10.80;99.90
20057;DHT22;10189;49.546;7.906;2023-05-10T02:30:00;10.80;99.90
20057;DHT22;10189;49.546;7.906;2023-05-10T02:32:27;10.70;99.90
20057;DHT22;10189;49.546;7.906;2023-05-10T02:34:56;10.60;99.90
20057;DHT22;10189;49.546;7.906;2023-05-10T02:37:24;10.60;99.90
20057;DHT22;10189;49.546;7.906;2023-05-10T02:39:54;10.60;99.90
20057;DHT22;10189;49.546;7.906;2023-05-10T02:42:25;10.50;99.90
20057;DHT22;10189;49.546;7.906;2023-05-10T02:45:00;10.50;99.90
20057;DHT22;10189;49.546;7.906;2023-05-10T02:47:29;10.50;99.90
20057;DHT22;10189;49.546;7.906;2023-05-10T02:49:55;10.50;99.90
20057;DHT22;10189;49.546;7.906;2023-05-10T02:52:30;10.40;99.90
20057;DHT22;10189;49.546;7.906;2023-05-10T02:55:12;10.40;99.90
20057;DHT22;10189;49.546;7.906;2023-05-10T02:57:46;10.40;99.90
20057;DHT22;10189;49.546;7.906;2023-05-10T03:00:20;10.30;99.90
20057;DHT22;10189;49.546;7.906;2023-05-10T03:02:46;10.30;99.90
20057;DHT22;10189;49.546;7.906;2023-05-10T03:05:13;10.30;99.90
20057;DHT22;10189;49.546;7.906;2023-05-10T03:07:38;10.20;99.90
20057;DHT22;10189;49.546;7.906;2023-05-10T03:10:05;10.20;99.90
20057;DHT22;10189;49.546;7.906;2023-05-10T03:18:58;10.30;99.90
20057;DHT22;10189;49.546;7.906;2023-05-10T03:21:32;10.30;99.90
20057;DHT22;10189;49.546;7.906;2023-05-10T03:24:05;10.30;99.90
20057;DHT22;10189;49.546;7.906;2023-05-10T03:26:35;10.30;99.90
20057;DHT22;10189;49.546;7.906;2023-05-10T03:29:08;10.30;99.90
20057;DHT22;10189;49.546;7.906;2023-05-10T03:31:38;10.20;99.90
20057;DHT22;10189;49.546;7.906;2023-05-10T03:34:04;10.20;99.90
20057;DHT22;10189;49.546;7.906;2023-05-10T03:36:31;10.20;99.90
20057;DHT22;10189;49.546;7.906;2023-05-10T03:38:58;10.10;99.90
20057;DHT22;10189;49.546;7.906;2023-05-10T03:41:24;10.10;99.90
20057;DHT22;10189;49.546;7.906;2023-05-10T03:43:51;10.10;99.90
20057;DHT22;10189;49.546;7.906;2023-05-10T03:46:17;10.10;99.90
20057;DHT22;10189;49.546;7.906;2023-05-10T03:48:44;10.10;99.90
20057;DHT22;10189;49.546;7.906;2023-05-10T03:51:10;10.10;99.90
20057;DHT22;10189;49.546;7.906;2023-05-10T03:53:36;10.20;99.90
20057;DHT22;10189;49.546;7.906;2023-05-10T03:56:02;10.30;99.90
20057;DHT22;10189;49.546;7.906;2023-05-10T03:58:28;10.30;99.90
20057;DHT22;10189;49.546;7.906;2023-05-10T04:00:54;10.40;99.90
20057;DHT22;10189;49.546;7.906;2023-05-10T04:03:20;10.40;99.90
20057;DHT22;10189;49.546;7.906;2023-05-10T04:05:46;10.40;99.90
20057;DHT22;10189;49.546;7.906;2023-05-10T04:08:12;10.50;99.90
20057;DHT22;10189;49.546;7.906;2023-05-10T04:10:38;10.50;99.90
20057;DHT22;10189;49.546;7.906;2023-05-10T04:13:04;10.60;99.90
20057;DHT22;10189;49.546;7.906;2023-05-10T04:15:30;10.70;99.90
20057;DHT22;10189;49.546;7.906;2023-05-10T04:17:56;10.70;99.90
20057;DHT22;10189;49.546;7.906;2023-05-10T04:20:22;10.80;99.90
20057;DHT22;10189;49.546;7.906;2023-05-10T04:22:47;10.80;99.90
20057;DHT22;10189;49.546;7.906;2023-05-10T04:25:13;10.90;99.90
20057;DHT22;10189;49.546;7.906;2023-05-10T04:27:39;11.00;99.90
20057;DHT22;10189;49.546;7.906;2023-05-10T04:30:07;11.00;99.90
20057;DHT22;10189;49.546;7.906;2023-05-10T04:32:33;11.00;99.90
20057;DHT22;10189;49.546;7.906;2023-05-10T04:34:59;11.10;99.90
20057;DHT22;10189;49.546;7.906;2023-05-10T04:37:25;11.10;99.90
20057;DHT22;10189;49.546;7.906;2023-05-10T04:39:50;11.10;99.90
20057;DHT22;10189;49.546;7.906;2023-05-10T04:42:16;11.10;99.90
20057;DHT22;10189;49.546;7.906;2023-05-10T04:44:42;11.00;99.90
20057;DHT22;10189;49.546;7.906;2023-05-10T04:47:08;11.00;99.90
20057;DHT22;10189;49.546;7.906;2023-05-10T04:49:34;11.00;99.90
20057;DHT22;10189;49.546;7.906;2023-05-10T04:52:00;11.00;99.90
20057;DHT22;10189;49.546;7.906;2023-05-10T04:54:26;11.10;99.90
20057;DHT22;10189;49.546;7.906;2023-05-10T04:56:52;11.20;99.90
20057;DHT22;10189;49.546;7.906;2023-05-10T04:59:18;11.30;99.90
20057;DHT22;10189;49.546;7.906;2023-05-10T05:01:44;11.40;99.90
20057;DHT22;10189;49.546;7.906;2023-05-10T05:04:10;11.60;99.90
20057;DHT22;10189;49.546;7.906;2023-05-10T05:06:36;11.70;99.90
20057;DHT22;10189;49.546;7.906;2023-05-10T05:09:02;11.70;99.90
20057;DHT22;10189;49.546;7.906;2023-05-10T05:11:28;11.80;99.90
20057;DHT22;10189;49.546;7.906;2023-05-10T05:13:54;11.90;99.90
20057;DHT22;10189;49.546;7.906;2023-05-10T05:16:20;11.90;99.90
20057;DHT22;10189;49.546;7.906;2023-05-10T05:18:45;11.90;99.90
20057;DHT22;10189;49.546;7.906;2023-05-10T05:21:18;11.90;99.90
20057;DHT22;10189;49.546;7.906;2023-05-10T05:23:45;12.00;99.90
20057;DHT22;10189;49.546;7.906;2023-05-10T05:26:11;12.00;99.90
20057;DHT22;10189;49.546;7.906;2023-05-10T05:28:37;12.10;99.90
20057;DHT22;10189;49.546;7.906;2023-05-10T05:31:04;12.20;99.90
20057;DHT22;10189;49.546;7.906;2023-05-10T05:33:31;12.20;99.90
20057;DHT22;10189;49.546;7.906;2023-05-10T05:35:57;12.20;99.90
20057;DHT22;10189;49.546;7.906;2023-05-10T05:38:26;12.30;99.90
20057;DHT22;10189;49.546;7.906;2023-05-10T05:40:52;12.20;99.90
20057;DHT22;10189;49.546;7.906;2023-05-10T05:43:17;12.20;99.90
20057;DHT22;10189;49.546;7.906;2023-05-10T05:45:43;12.30;99.90
20057;DHT22;10189;49.546;7.906;2023-05-10T05:48:09;12.30;99.90
20057;DHT22;10189;49.546;7.906;2023-05-10T05:50:35;12.40;99.90
20057;DHT22;10189;49.546;7.906;2023-05-10T05:53:01;12.40;99.90
20057;DHT22;10189;49.546;7.906;2023-05-10T05:55:27;12.40;99.90
20057;DHT22;10189;49.546;7.906;2023-05-10T05:57:55;12.70;99.90
20057;DHT22;10189;49.546;7.906;2023-05-10T06:00:20;13.00;99.90
20057;DHT22;10189;49.546;7.906;2023-05-10T06:02:47;13.00;99.90
20057;DHT22;10189;49.546;7.906;2023-05-10T06:05:13;12.90;99.90
20057;DHT22;10189;49.546;7.906;2023-05-10T06:07:40;12.70;99.90
20057;DHT22;10189;49.546;7.906;2023-05-10T06:10:08;12.80;99.90
20057;DHT22;10189;49.546;7.906;2023-05-10T06:12:34;13.00;99.90
20057;DHT22;10189;49.546;7.906;2023-05-10T06:15:00;13.20;99.90
20057;DHT22;10189;49.546;7.906;2023-05-10T06:17:26;13.40;99.90
20057;DHT22;10189;49.546;7.906;2023-05-10T06:19:53;13.70;99.90
20057;DHT22;10189;49.546;7.906;2023-05-10T06:22:18;13.80;99.90
20057;DHT22;10189;49.546;7.906;2023-05-10T06:24:44;14.00;99.80
20057;DHT22;10189;49.546;7.906;2023-05-10T06:27:10;14.10;98.50
20057;DHT22;10189;49.546;7.906;2023-05-10T06:29:36;14.30;94.00
20057;DHT22;10189;49.546;7.906;2023-05-10T06:32:02;14.20;95.30
20057;DHT22;10189;49.546;7.906;2023-05-10T06:34:28;14.20;95.50
20057;DHT22;10189;49.546;7.906;2023-05-10T06:36:53;14.10;96.20
20057;DHT22;10189;49.546;7.906;2023-05-10T06:39:19;14.00;95.70
20057;DHT22;10189;49.546;7.906;2023-05-10T06:41:45;13.90;96.60
20057;DHT22;10189;49.546;7.906;2023-05-10T06:44:11;13.90;96.40
20057;DHT22;10189;49.546;7.906;2023-05-10T06:46:38;14.00;96.10
20057;DHT22;10189;49.546;7.906;2023-05-10T06:49:04;14.40;96.40
20057;DHT22;10189;49.546;7.906;2023-05-10T06:51:30;14.70;91.80
20057;DHT22;10189;49.546;7.906;2023-05-10T06:53:56;14.30;91.30
20057;DHT22;10189;49.546;7.906;2023-05-10T06:56:22;14.20;93.20
20057;DHT22;10189;49.546;7.906;2023-05-10T06:58:48;14.00;93.90
20057;DHT22;10189;49.546;7.906;2023-05-10T07:01:14;13.90;93.40
20057;DHT22;10189;49.546;7.906;2023-05-10T07:03:40;13.90;94.00
20057;DHT22;10189;49.546;7.906;2023-05-10T07:06:06;14.00;94.40
20057;DHT22;10189;49.546;7.906;2023-05-10T07:08:33;14.00;93.80
20057;DHT22;10189;49.546;7.906;2023-05-10T07:11:04;14.00;92.50
20057;DHT22;10189;49.546;7.906;2023-05-10T07:13:33;14.20;93.40
20057;DHT22;10189;49.546;7.906;2023-05-10T07:16:00;14.20;90.50
20057;DHT22;10189;49.546;7.906;2023-05-10T07:18:27;14.30;89.80
20057;DHT22;10189;49.546;7.906;2023-05-10T07:20:53;14.60;89.40
20057;DHT22;10189;49.546;7.906;2023-05-10T07:23:19;14.80;88.50
20057;DHT22;10189;49.546;7.906;2023-05-10T07:25:49;14.80;87.90
20057;DHT22;10189;49.546;7.906;2023-05-10T07:28:17;14.80;88.40
20057;DHT22;10189;49.546;7.906;2023-05-10T07:30:44;14.80;86.40
20057;DHT22;10189;49.546;7.906;2023-05-10T07:33:12;14.70;85.50
20057;DHT22;10189;49.546;7.906;2023-05-10T07:35:39;14.70;82.80
20057;DHT22;10189;49.546;7.906;2023-05-10T07:38:05;14.60;85.50
20057;DHT22;10189;49.546;7.906;2023-05-10T07:40:32;14.70;84.80
20057;DHT22;10189;49.546;7.906;2023-05-10T07:42:58;14.90;86.00
20057;DHT22;10189;49.546;7.906;2023-05-10T07:45:26;14.90;84.90
20057;DHT22;10189;49.546;7.906;2023-05-10T07:47:52;15.10;83.60
20057;DHT22;10189;49.546;7.906;2023-05-10T07:50:18;15.30;81.70
20057;DHT22;10189;49.546;7.906;2023-05-10T07:52:44;15.50;79.80
20057;DHT22;10189;49.546;7.906;2023-05-10T07:55:10;15.10;82.00
20057;DHT22;10189;49.546;7.906;2023-05-10T07:57:36;15.00;81.00
20057;DHT22;10189;49.546;7.906;2023-05-10T08:00:02;14.70;82.40
20057;DHT22;10189;49.546;7.906;2023-05-10T08:02:38;14.70;86.50
20057;DHT22;10189;49.546;7.906;2023-05-10T08:05:05;14.90;87.60
20057;DHT22;10189;49.546;7.906;2023-05-10T08:07:31;15.00;85.60
20057;DHT22;10189;49.546;7.906;2023-05-10T08:09:57;14.70;85.50
20057;DHT22;10189;49.546;7.906;2023-05-10T08:12:23;14.40;88.70
20057;DHT22;10189;49.546;7.906;2023-05-10T08:14:49;14.40;88.70
20057;DHT22;10189;49.546;7.906;2023-05-10T08:17:15;14.40;88.20
20057;DHT22;10189;49.546;7.906;2023-05-10T08:19:41;14.30;88.10
20057;DHT22;10189;49.546;7.906;2023-05-10T08:22:07;14.40;89.90
20057;DHT22;10189;49.546;7.906;2023-05-10T08:24:33;14.30;86.90
20057;DHT22;10189;49.546;7.906;2023-05-10T08:27:05;14.30;87.20
20057;DHT22;10189;49.546;7.906;2023-05-10T08:29:31;14.20;85.10
20057;DHT22;10189;49.546;7.906;2023-05-10T08:31:57;14.30;85.30
20057;DHT22;10189;49.546;7.906;2023-05-10T08:34:23;14.50;84.60
20057;DHT22;10189;49.546;7.906;2023-05-10T08:36:50;14.90;87.60
20057;DHT22;10189;49.546;7.906;2023-05-10T08:39:16;15.20;83.20
20057;DHT22;10189;49.546;7.906;2023-05-10T08:41:44;14.90;81.80
20057;DHT22;10189;49.546;7.906;2023-05-10T08:44:12;14.50;82.80
20057;DHT22;10189;49.546;7.906;2023-05-10T08:46:41;14.40;86.20
20057;DHT22;10189;49.546;7.906;2023-05-10T08:49:13;14.50;86.20
20057;DHT22;10189;49.546;7.906;2023-05-10T08:51:50;14.40;85.70
20057;DHT22;10189;49.546;7.906;2023-05-10T08:54:21;14.20;84.90
20057;DHT22;10189;49.546;7.906;2023-05-10T08:56:48;14.20;85.50
20057;DHT22;10189;49.546;7.906;2023-05-10T08:59:14;14.40;84.30
20057;DHT22;10189;49.546;7.906;2023-05-10T09:01:42;14.40;83.30
20057;DHT22;10189;49.546;7.906;2023-05-10T09:04:11;14.40;85.30
20057;DHT22;10189;49.546;7.906;2023-05-10T09:06:37;14.20;83.40
20057;DHT22;10189;49.546;7.906;2023-05-10T09:09:03;14.00;85.70
20057;DHT22;10189;49.546;7.906;2023-05-10T09:11:29;13.70;85.80
20057;DHT22;10189;49.546;7.906;2023-05-10T09:13:56;13.70;85.50
20057;DHT22;10189;49.546;7.906;2023-05-10T09:16:22;13.50;86.20
20057;DHT22;10189;49.546;7.906;2023-05-10T09:18:48;13.60;86.00
20057;DHT22;10189;49.546;7.906;2023-05-10T09:21:15;13.70;86.20
20057;DHT22;10189;49.546;7.906;2023-05-10T09:23:45;13.80;86.60
20057;DHT22;10189;49.546;7.906;2023-05-10T09:26:12;13.80;84.30
20057;DHT22;10189;49.546;7.906;2023-05-10T09:31:22;13.70;83.80
20057;DHT22;10189;49.546;7.906;2023-05-10T09:33:50;13.90;84.80
20057;DHT22;10189;49.546;7.906;2023-05-10T09:36:18;14.10;84.00
20057;DHT22;10189;49.546;7.906;2023-05-10T09:38:51;14.20;83.40
20057;DHT22;10189;49.546;7.906;2023-05-10T09:41:25;14.40;83.80
20057;DHT22;10189;49.546;7.906;2023-05-10T09:43:56;14.60;82.70
20057;DHT22;10189;49.546;7.906;2023-05-10T09:46:22;15.00;81.40
20057;DHT22;10189;49.546;7.906;2023-05-10T09:48:48;15.60;79.50
20057;DHT22;10189;49.546;7.906;2023-05-10T09:51:21;15.50;78.40
20057;DHT22;10189;49.546;7.906;2023-05-10T09:53:50;15.60;80.10
20057;DHT22;10189;49.546;7.906;2023-05-10T09:56:42;15.70;78.80
20057;DHT22;10189;49.546;7.906;2023-05-10T09:59:12;15.50;77.50
20057;DHT22;10189;49.546;7.906;2023-05-10T10:01:39;15.20;77.30
20057;DHT22;10189;49.546;7.906;2023-05-10T10:04:07;15.10;77.60
20057;DHT22;10189;49.546;7.906;2023-05-10T10:06:38;15.00;77.20
20057;DHT22;10189;49.546;7.906;2023-05-10T10:09:06;15.10;80.00
20057;DHT22;10189;49.546;7.906;2023-05-10T10:11:36;15.40;79.20
20057;DHT22;10189;49.546;7.906;2023-05-10T10:14:05;15.80;78.30
20057;DHT22;10189;49.546;7.906;2023-05-10T10:16:32;16.10;77.90
20057;DHT22;10189;49.546;7.906;2023-05-10T10:18:58;15.90;76.20
20057;DHT22;10189;49.546;7.906;2023-05-10T10:21:24;15.80;74.50
20057;DHT22;10189;49.546;7.906;2023-05-10T10:23:51;15.80;76.60
20057;DHT22;10189;49.546;7.906;2023-05-10T10:26:19;16.20;76.40
20057;DHT22;10189;49.546;7.906;2023-05-10T10:31:53;15.90;73.60
20057;DHT22;10189;49.546;7.906;2023-05-10T10:34:28;15.80;73.80
20057;DHT22;10189;49.546;7.906;2023-05-10T10:36:56;15.90;73.10
20057;DHT22;10189;49.546;7.906;2023-05-10T10:39:24;16.10;74.30
20057;DHT22;10189;49.546;7.906;2023-05-10T10:41:55;16.80;76.80
20057;DHT22;10189;49.546;7.906;2023-05-10T10:52:24;17.80;64.40
20057;DHT22;10189;49.546;7.906;2023-05-10T10:55:13;17.90;64.10
20057;DHT22;10189;49.546;7.906;2023-05-10T10:57:46;17.70;63.80
20057;DHT22;10189;49.546;7.906;2023-05-10T11:00:30;18.10;62.00
20057;DHT22;10189;49.546;7.906;2023-05-10T11:03:09;17.60;62.30
20057;DHT22;10189;49.546;7.906;2023-05-10T11:05:42;17.70;63.40
20057;DHT22;10189;49.546;7.906;2023-05-10T11:11:13;18.30;58.80
20057;DHT22;10189;49.546;7.906;2023-05-10T11:13:46;17.80;60.10
20057;DHT22;10189;49.546;7.906;2023-05-10T11:16:23;17.60;62.00
20057;DHT22;10189;49.546;7.906;2023-05-10T11:19:01;17.10;62.00
20057;DHT22;10189;49.546;7.906;2023-05-10T11:21:34;16.70;64.20
20057;DHT22;10189;49.546;7.906;2023-05-10T11:24:14;16.80;63.10
20057;DHT22;10189;49.546;7.906;2023-05-10T11:26:42;16.50;64.10
20057;DHT22;10189;49.546;7.906;2023-05-10T11:29:08;16.10;67.50
20057;DHT22;10189;49.546;7.906;2023-05-10T11:31:35;15.90;66.50
20057;DHT22;10189;49.546;7.906;2023-05-10T11:34:07;15.70;68.10
20057;DHT22;10189;49.546;7.906;2023-05-10T11:36:35;15.60;69.90
20057;DHT22;10189;49.546;7.906;2023-05-10T11:39:02;15.50;70.10
20057;DHT22;10189;49.546;7.906;2023-05-10T11:41:30;15.30;71.50
20057;DHT22;10189;49.546;7.906;2023-05-10T11:43:57;15.30;70.30
20057;DHT22;10189;49.546;7.906;2023-05-10T11:46:25;15.40;71.20
20057;DHT22;10189;49.546;7.906;2023-05-10T11:48:55;15.50;72.10
20057;DHT22;10189;49.546;7.906;2023-05-10T11:51:24;15.40;70.10
20057;DHT22;10189;49.546;7.906;2023-05-10T11:53:53;15.50;70.70
20057;DHT22;10189;49.546;7.906;2023-05-10T11:56:20;15.80;69.10
20057;DHT22;10189;49.546;7.906;2023-05-10T11:58:56;16.00;69.60
20057;DHT22;10189;49.546;7.906;2023-05-10T12:01:26;16.20;68.50
20057;DHT22;10189;49.546;7.906;2023-05-10T12:03:53;16.30;68.10
20057;DHT22;10189;49.546;7.906;2023-05-10T12:06:27;16.10;65.60
20057;DHT22;10189;49.546;7.906;2023-05-10T12:08:56;16.10;64.70
20057;DHT22;10189;49.546;7.906;2023-05-10T12:11:27;16.30;67.10
20057;DHT22;10189;49.546;7.906;2023-05-10T12:13:54;16.20;66.40
20057;DHT22;10189;49.546;7.906;2023-05-10T12:16:26;16.30;65.50
20057;DHT22;10189;49.546;7.906;2023-05-10T12:18:58;16.50;66.80
20057;DHT22;10189;49.546;7.906;2023-05-10T12:21:28;16.50;65.60
20057;DHT22;10189;49.546;7.906;2023-05-10T12:24:00;16.40;64.40
20057;DHT22;10189;49.546;7.906;2023-05-10T12:26:28;16.50;64.80
20057;DHT22;10189;49.546;7.906;2023-05-10T12:29:00;16.80;65.80
20057;DHT22;10189;49.546;7.906;2023-05-10T12:31:53;17.10;65.00
20057;DHT22;10189;49.546;7.906;2023-05-10T12:34:33;17.10;61.90
20057;DHT22;10189;49.546;7.906;2023-05-10T12:37:02;17.20;63.10
20057;DHT22;10189;49.546;7.906;2023-05-10T12:39:42;17.40;62.90
20057;DHT22;10189;49.546;7.906;2023-05-10T12:42:09;17.60;62.10
20057;DHT22;10189;49.546;7.906;2023-05-10T12:44:35;17.90;62.40
20057;DHT22;10189;49.546;7.906;2023-05-10T12:47:01;18.10;58.50
20057;DHT22;10189;49.546;7.906;2023-05-10T12:49:27;18.30;58.20
20057;DHT22;10189;49.546;7.906;2023-05-10T12:51:53;18.70;61.20
20057;DHT22;10189;49.546;7.906;2023-05-10T12:54:19;19.00;58.20
20057;DHT22;10189;49.546;7.906;2023-05-10T12:56:45;18.50;56.60
20057;DHT22;10189;49.546;7.906;2023-05-10T12:59:10;18.30;56.30
20057;DHT22;10189;49.546;7.906;2023-05-10T13:01:40;18.00;55.30
20057;DHT22;10189;49.546;7.906;2023-05-10T13:04:07;17.80;58.40
20057;DHT22;10189;49.546;7.906;2023-05-10T13:06:32;18.10;57.90
20057;DHT22;10189;49.546;7.906;2023-05-10T13:08:58;18.20;58.40
20057;DHT22;10189;49.546;7.906;2023-05-10T13:11:24;18.30;56.60
20057;DHT22;10189;49.546;7.906;2023-05-10T13:13:51;18.40;58.40
20057;DHT22;10189;49.546;7.906;2023-05-10T13:16:17;18.60;56.40
20057;DHT22;10189;49.546;7.906;2023-05-10T13:18:43;18.30;56.60
20057;DHT22;10189;49.546;7.906;2023-05-10T13:21:08;18.20;57.20
20057;DHT22;10189;49.546;7.906;2023-05-10T13:23:34;18.00;59.00
20057;DHT22;10189;49.546;7.906;2023-05-10T13:26:00;18.20;56.10
20057;DHT22;10189;49.546;7.906;2023-05-10T13:28:26;18.40;56.40
20057;DHT22;10189;49.546;7.906;2023-05-10T13:30:52;18.10;56.40
20057;DHT22;10189;49.546;7.906;2023-05-10T13:33:18;18.30;58.70
20057;DHT22;10189;49.546;7.906;2023-05-10T13:35:44;18.50;59.90
20057;DHT22;10189;49.546;7.906;2023-05-10T13:38:11;18.50;58.50
20057;DHT22;10189;49.546;7.906;2023-05-10T13:40:38;18.60;57.60
20057;DHT22;10189;49.546;7.906;2023-05-10T13:43:03;18.80;55.40
20057;DHT22;10189;49.546;7.906;2023-05-10T13:45:29;18.70;55.30
20057;DHT22;10189;49.546;7.906;2023-05-10T13:47:55;18.50;54.30
20057;DHT22;10189;49.546;7.906;2023-05-10T13:50:21;18.00;55.40
20057;DHT22;10189;49.546;7.906;2023-05-10T13:52:47;17.50;56.60
20057;DHT22;10189;49.546;7.906;2023-05-10T13:55:13;17.40;55.80
20057;DHT22;10189;49.546;7.906;2023-05-10T13:57:39;17.50;59.00
20057;DHT22;10189;49.546;7.906;2023-05-10T14:00:05;17.80;54.90
20057;DHT22;10189;49.546;7.906;2023-05-10T14:02:33;18.10;53.30
20057;DHT22;10189;49.546;7.906;2023-05-10T14:04:59;18.40;54.50
20057;DHT22;10189;49.546;7.906;2023-05-10T14:07:25;18.40;53.30
20057;DHT22;10189;49.546;7.906;2023-05-10T14:09:51;18.10;51.30
20057;DHT22;10189;49.546;7.906;2023-05-10T14:12:17;18.00;54.50
20057;DHT22;10189;49.546;7.906;2023-05-10T14:14:43;18.30;56.00
20057;DHT22;10189;49.546;7.906;2023-05-10T14:17:09;18.70;51.40
20057;DHT22;10189;49.546;7.906;2023-05-10T14:19:35;18.40;53.10
20057;DHT22;10189;49.546;7.906;2023-05-10T14:22:01;18.50;52.60
20057;DHT22;10189;49.546;7.906;2023-05-10T14:24:27;18.30;54.00
20057;DHT22;10189;49.546;7.906;2023-05-10T14:26:53;18.20;52.80
20057;DHT22;10189;49.546;7.906;2023-05-10T14:29:20;18.30;50.60
20057;DHT22;10189;49.546;7.906;2023-05-10T14:31:46;17.90;51.80
20057;DHT22;10189;49.546;7.906;2023-05-10T14:34:12;17.90;53.20
20057;DHT22;10189;49.546;7.906;2023-05-10T14:36:38;17.60;53.00
20057;DHT22;10189;49.546;7.906;2023-05-10T14:39:05;17.50;52.00
20057;DHT22;10189;49.546;7.906;2023-05-10T14:41:32;17.60;55.20
20057;DHT22;10189;49.546;7.906;2023-05-10T14:43:58;17.70;52.50
20057;DHT22;10189;49.546;7.906;2023-05-10T14:46:24;17.60;49.70
20057;DHT22;10189;49.546;7.906;2023-05-10T14:48:50;17.10;49.60
20057;DHT22;10189;49.546;7.906;2023-05-10T14:51:15;17.30;52.20
20057;DHT22;10189;49.546;7.906;2023-05-10T14:53:42;17.40;49.80
20057;DHT22;10189;49.546;7.906;2023-05-10T14:56:08;17.50;51.20
20057;DHT22;10189;49.546;7.906;2023-05-10T14:58:34;17.40;53.00
20057;DHT22;10189;49.546;7.906;2023-05-10T15:00:59;17.50;50.40
20057;DHT22;10189;49.546;7.906;2023-05-10T15:03:26;17.60;49.70
20057;DHT22;10189;49.546;7.906;2023-05-10T15:05:51;17.60;53.50
20057;DHT22;10189;49.546;7.906;2023-05-10T15:08:18;17.90;52.30
20057;DHT22;10189;49.546;7.906;2023-05-10T15:10:44;18.10;51.80
20057;DHT22;10189;49.546;7.906;2023-05-10T15:13:10;18.10;50.80
20057;DHT22;10189;49.546;7.906;2023-05-10T15:15:36;17.90;51.60
20057;DHT22;10189;49.546;7.906;2023-05-10T15:18:02;17.80;51.30
20057;DHT22;10189;49.546;7.906;2023-05-10T15:20:30;17.40;51.00
20057;DHT22;10189;49.546;7.906;2023-05-10T15:22:56;17.10;51.60
20057;DHT22;10189;49.546;7.906;2023-05-10T15:25:22;16.90;51.40
20057;DHT22;10189;49.546;7.906;2023-05-10T15:27:49;16.80;55.90
20057;DHT22;10189;49.546;7.906;2023-05-10T15:30:15;17.00;53.50
20057;DHT22;10189;49.546;7.906;2023-05-10T15:32:41;17.10;53.40
20057;DHT22;10189;49.546;7.906;2023-05-10T15:35:08;17.30;51.70
20057;DHT22;10189;49.546;7.906;2023-05-10T15:37:35;17.50;51.70
20057;DHT22;10189;49.546;7.906;2023-05-10T15:40:02;17.40;51.40
20057;DHT22;10189;49.546;7.906;2023-05-10T15:42:29;17.50;53.00
20057;DHT22;10189;49.546;7.906;2023-05-10T15:44:56;17.60;53.80
20057;DHT22;10189;49.546;7.906;2023-05-10T15:47:22;17.70;50.60
20057;DHT22;10189;49.546;7.906;2023-05-10T15:49:47;17.60;50.50
20057;DHT22;10189;49.546;7.906;2023-05-10T15:52:13;17.70;51.00
20057;DHT22;10189;49.546;7.906;2023-05-10T15:54:39;17.70;52.10
20057;DHT22;10189;49.546;7.906;2023-05-10T15:57:06;17.40;51.00
20057;DHT22;10189;49.546;7.906;2023-05-10T15:59:32;17.40;52.60
20057;DHT22;10189;49.546;7.906;2023-05-10T16:01:58;17.70;51.50
20057;DHT22;10189;49.546;7.906;2023-05-10T16:04:24;18.10;50.10
20057;DHT22;10189;49.546;7.906;2023-05-10T16:06:50;18.40;50.60
20057;DHT22;10189;49.546;7.906;2023-05-10T16:09:16;18.80;51.00
20057;DHT22;10189;49.546;7.906;2023-05-10T16:11:42;19.20;48.90
20057;DHT22;10189;49.546;7.906;2023-05-10T16:14:08;19.40;48.20